createdAt,value
2019-05-21T00:01:38.315Z,33.60
2019-05-21T00:06:42.799Z,35.67
2019-05-21T00:11:46.923Z,33.87
2019-05-21T00:17:02.261Z,32.50
2019-05-21T00:22:18.183Z,34.57
2019-05-21T00:27:22.274Z,33.43
2019-05-21T00:33:04.179Z,33.27
2019-05-21T00:38:45.106Z,33.57
2019-05-21T00:43:56.625Z,32.73
2019-05-21T00:49:02.280Z,32.70
2019-05-21T00:54:07.650Z,33.80
2019-05-21T00:59:12.590Z,33.07
2019-05-21T01:04:17.576Z,31.20
2019-05-21T01:09:22.057Z,29.20
2019-05-21T01:14:27.036Z,28.27
2019-05-21T01:19:33.022Z,27.27
2019-05-21T01:24:38.287Z,28.77
2019-05-21T01:29:43.275Z,27.47
2019-05-21T01:34:48.359Z,26.20
2019-05-21T01:39:53.553Z,25.87
2019-05-21T01:44:58.473Z,24.60
2019-05-21T01:50:02.568Z,25.50
2019-05-21T01:55:07.769Z,22.90
2019-05-21T02:00:13.056Z,23.00
2019-05-21T02:05:32.002Z,21.93
2019-05-21T02:10:24.969Z,19.70
2019-05-21T02:15:30.115Z,20.37
2019-05-21T02:20:36.038Z,18.77
2019-05-21T02:25:41.409Z,18.60
2019-05-21T02:30:46.316Z,17.30
2019-05-21T02:35:54.094Z,17.47
2019-05-21T02:40:56.431Z,16.30
2019-05-21T02:46:00.021Z,16.20
2019-05-21T02:51:03.627Z,14.37
2019-05-21T02:56:07.139Z,15.00
2019-05-21T03:01:45.501Z,14.73
2019-05-21T03:06:49.599Z,12.93
2019-05-21T03:11:53.717Z,12.70
2019-05-21T03:16:58.684Z,12.50
2019-05-21T03:22:05.024Z,12.07
2019-05-21T03:27:10.657Z,13.00
2019-05-21T03:32:16.502Z,12.17
2019-05-21T03:37:21.584Z,12.67
2019-05-21T03:42:25.615Z,11.37
2019-05-21T03:47:29.732Z,12.40
2019-05-21T03:52:34.332Z,11.80
2019-05-21T03:57:39.619Z,11.80
2019-05-21T04:02:44.874Z,10.90
2019-05-21T04:07:49.993Z,10.10
2019-05-21T04:13:08.644Z,9.93
2019-05-21T04:18:20.121Z,11.83
2019-05-21T04:23:25.551Z,11.13
2019-05-21T04:28:30.834Z,11.30
2019-05-21T04:33:36.311Z,10.77
2019-05-21T04:38:41.922Z,9.90
2019-05-21T04:43:47.006Z,9.50
2019-05-21T04:48:54.443Z,10.37
2019-05-21T04:53:59.854Z,10.40
2019-05-21T04:59:05.113Z,9.87
2019-05-21T05:04:11.152Z,8.57
2019-05-21T05:09:16.290Z,9.03
2019-05-21T05:14:21.874Z,8.57
2019-05-21T05:19:27.025Z,8.13
2019-05-21T05:24:36.868Z,7.17
2019-05-21T05:29:40.844Z,5.83
2019-05-21T05:34:46.846Z,6.00
2019-05-21T05:39:52.818Z,5.40
2019-05-21T05:44:58.276Z,4.33
2019-05-21T05:50:05.563Z,3.70
2019-05-21T05:55:10.822Z,3.30
2019-05-21T06:00:17.333Z,3.20
2019-05-21T06:05:23.019Z,2.73
2019-05-21T06:10:28.262Z,2.60
2019-05-21T06:15:34.028Z,2.70
2019-05-21T06:20:39.122Z,3.47
2019-05-21T06:25:45.682Z,3.50
2019-05-21T06:30:50.619Z,3.50
2019-05-21T06:35:55.096Z,3.60
2019-05-21T06:40:59.221Z,2.97
2019-05-21T06:46:03.541Z,2.60
2019-05-21T06:51:07.636Z,3.10
2019-05-21T06:56:12.066Z,2.50
2019-05-21T07:01:16.440Z,3.30
2019-05-21T07:06:20.225Z,3.50
2019-05-21T07:11:24.950Z,3.37
2019-05-21T07:16:30.842Z,3.20
2019-05-21T07:22:12.840Z,3.67
2019-05-21T07:27:12.546Z,3.47
2019-05-21T07:32:17.905Z,3.80
2019-05-21T07:37:22.518Z,2.87
2019-05-21T07:42:28.558Z,3.80
2019-05-21T07:47:32.925Z,3.93
2019-05-21T07:52:38.225Z,3.97
2019-05-21T07:57:43.516Z,3.23
2019-05-21T08:02:49.581Z,3.47
2019-05-21T08:07:54.848Z,2.60
2019-05-21T08:13:00.321Z,2.97
2019-05-21T08:18:05.674Z,2.93
2019-05-21T08:23:10.559Z,3.20
2019-05-21T08:28:16.890Z,2.90
2019-05-21T08:33:22.368Z,3.20
2019-05-21T08:38:27.187Z,3.27
2019-05-21T08:43:32.254Z,2.90
2019-05-21T08:48:37.257Z,3.20
2019-05-21T08:53:42.665Z,2.80
2019-05-21T08:58:48.683Z,3.00
2019-05-21T09:03:53.545Z,3.27
2019-05-21T09:08:58.614Z,2.97
2019-05-21T09:14:04.106Z,2.43
2019-05-21T09:19:09.183Z,2.73
2019-05-21T09:24:14.457Z,2.77
2019-05-21T09:29:20.742Z,2.53
2019-05-21T09:34:26.359Z,3.30
2019-05-21T09:39:32.278Z,3.30
2019-05-21T09:44:37.956Z,3.40
2019-05-21T09:49:43.646Z,3.60
2019-05-21T09:54:49.380Z,3.53
2019-05-21T10:00:00.984Z,3.23
2019-05-21T10:05:07.016Z,3.60
2019-05-21T10:10:13.181Z,3.03
2019-05-21T10:15:20.961Z,2.77
2019-05-21T10:20:26.729Z,3.00
2019-05-21T10:25:32.426Z,3.23
2019-05-21T10:30:38.389Z,2.80
2019-05-21T10:35:42.845Z,2.87
2019-05-21T10:40:47.330Z,2.80
2019-05-21T10:45:54.187Z,3.00
2019-05-21T10:50:59.880Z,3.90
2019-05-21T10:56:05.979Z,3.23
2019-05-21T11:01:37.921Z,3.10
2019-05-21T11:06:47.231Z,3.73
2019-05-21T11:11:54.339Z,3.47
2019-05-21T11:16:59.495Z,3.57
2019-05-21T11:22:04.991Z,3.80
2019-05-21T11:27:09.374Z,3.80
2019-05-21T11:32:13.463Z,3.20
2019-05-21T11:37:17.749Z,3.60
2019-05-21T11:42:22.057Z,3.60
2019-05-21T11:47:26.420Z,3.80
2019-05-21T11:52:29.742Z,3.57
2019-05-21T11:57:35.324Z,3.30
2019-05-21T12:02:40.700Z,3.20
2019-05-21T12:07:45.886Z,3.00
2019-05-21T12:12:51.530Z,3.50
2019-05-21T12:17:56.622Z,3.80
2019-05-21T12:23:01.702Z,3.40
2019-05-21T12:28:10.833Z,3.20
2019-05-21T12:33:15.030Z,3.43
2019-05-21T12:38:19.933Z,3.47
2019-05-21T12:43:25.674Z,3.70
2019-05-21T12:48:31.725Z,4.00
2019-05-21T12:53:37.523Z,4.10
2019-05-21T12:58:43.552Z,4.13
2019-05-21T13:03:48.814Z,3.70
2019-05-21T13:08:53.950Z,5.23
2019-05-21T13:13:59.178Z,4.63
2019-05-21T13:19:04.687Z,4.97
2019-05-21T13:24:09.712Z,5.60
2019-05-21T13:29:14.760Z,5.73
2019-05-21T13:34:20.889Z,5.60
2019-05-21T13:39:25.967Z,5.20
2019-05-21T13:44:31.079Z,5.43
2019-05-21T13:49:37.622Z,6.27
2019-05-21T13:54:42.815Z,6.20
2019-05-21T13:59:48.172Z,6.00
2019-05-21T14:04:54.190Z,6.10
2019-05-21T14:10:14.000Z,6.13
2019-05-21T14:15:07.442Z,5.83
2019-05-21T14:20:13.943Z,6.30
2019-05-21T14:25:19.316Z,7.00
2019-05-21T14:30:24.837Z,7.27
2019-05-21T14:35:30.811Z,7.17
2019-05-21T14:40:35.959Z,7.43
2019-05-21T14:45:41.348Z,7.80
2019-05-21T14:50:47.826Z,7.70
2019-05-21T14:55:52.864Z,8.17
2019-05-21T15:01:01.176Z,8.47
2019-05-21T15:06:08.000Z,8.10
2019-05-21T15:11:13.215Z,8.30
2019-05-21T15:16:17.964Z,8.03
2019-05-21T15:21:33.269Z,8.40
2019-05-21T15:26:37.689Z,8.67
2019-05-21T15:31:43.230Z,9.30
2019-05-21T15:36:47.585Z,8.47
2019-05-21T15:41:53.351Z,8.70
2019-05-21T15:46:57.605Z,8.90
2019-05-21T15:52:03.448Z,9.47
2019-05-21T15:57:10.524Z,8.70
2019-05-21T16:02:15.340Z,8.80
2019-05-21T16:07:21.142Z,8.47
2019-05-21T16:12:26.467Z,8.90
2019-05-21T16:17:31.775Z,8.70
2019-05-21T16:22:36.560Z,7.63
2019-05-21T16:27:40.743Z,8.00
2019-05-21T16:33:20.448Z,7.47
2019-05-21T16:38:26.636Z,8.00
2019-05-21T16:43:33.022Z,8.30
2019-05-21T16:48:38.330Z,8.10
2019-05-21T16:53:47.084Z,8.20
2019-05-21T16:59:04.258Z,8.37
2019-05-21T17:04:09.373Z,8.40
2019-05-21T17:09:14.605Z,8.00
2019-05-21T17:14:20.184Z,8.53
2019-05-21T17:19:25.780Z,8.53
2019-05-21T17:24:31.074Z,9.10
2019-05-21T17:29:36.026Z,9.50
2019-05-21T17:34:41.509Z,8.93
2019-05-21T17:39:47.910Z,9.47
2019-05-21T17:44:53.364Z,9.10
2019-05-21T17:49:58.174Z,9.97
2019-05-21T17:55:03.649Z,10.33
2019-05-21T18:00:10.152Z,11.30
2019-05-21T18:05:16.245Z,11.90
2019-05-21T18:10:21.563Z,12.47
2019-05-21T18:15:26.939Z,11.60
2019-05-21T18:20:32.236Z,12.00
2019-05-21T18:25:37.524Z,11.33
2019-05-21T18:30:41.246Z,12.00
2019-05-21T18:35:45.574Z,12.37
2019-05-21T18:40:49.613Z,12.03
2019-05-21T18:45:54.848Z,12.60
2019-05-21T18:51:00.580Z,12.83
2019-05-21T18:56:06.535Z,13.67
2019-05-21T19:01:13.940Z,12.60
2019-05-21T19:06:19.233Z,14.10
2019-05-21T19:11:25.210Z,14.33
2019-05-21T19:16:30.051Z,14.43
2019-05-21T19:21:35.943Z,14.23
2019-05-21T19:26:43.997Z,15.40
2019-05-21T19:31:49.415Z,16.20
2019-05-21T19:36:55.080Z,15.97
2019-05-21T19:41:59.745Z,16.20
2019-05-21T19:47:03.918Z,17.40
2019-05-21T19:52:08.942Z,17.77
2019-05-21T19:57:14.274Z,18.40
2019-05-21T20:02:20.124Z,17.17
2019-05-21T20:07:25.807Z,18.77
2019-05-21T20:12:31.988Z,18.37
2019-05-21T20:17:40.563Z,16.70
2019-05-21T20:22:46.453Z,19.47
2019-05-21T20:27:52.435Z,19.07
2019-05-21T20:32:57.629Z,19.10
2019-05-21T20:38:03.830Z,19.13
2019-05-21T20:43:10.354Z,18.27
2019-05-21T20:48:16.043Z,19.83
2019-05-21T20:53:21.491Z,19.07
2019-05-21T20:58:27.565Z,19.33
2019-05-21T21:03:33.439Z,20.07
2019-05-21T21:08:38.575Z,20.00
2019-05-21T21:13:44.800Z,20.60
2019-05-21T21:18:52.309Z,18.83
2019-05-21T21:23:59.814Z,19.77
2019-05-21T21:29:06.855Z,21.10
2019-05-21T21:34:12.339Z,19.47
2019-05-21T21:39:17.011Z,20.57
2019-05-21T21:44:33.578Z,20.20
2019-05-21T21:49:32.349Z,18.80
2019-05-21T21:54:38.146Z,18.10
2019-05-21T21:59:43.863Z,18.70
2019-05-21T22:04:50.830Z,19.17
2019-05-21T22:09:56.001Z,19.43
2019-05-21T22:15:01.621Z,21.90
2019-05-21T22:20:08.094Z,21.80
2019-05-21T22:25:13.878Z,23.57
2019-05-21T22:30:19.381Z,21.37
2019-05-21T22:35:24.991Z,23.10
2019-05-21T22:40:30.140Z,22.00
2019-05-21T22:45:35.191Z,21.27
2019-05-21T22:50:39.942Z,22.97
2019-05-21T22:55:46.331Z,21.43
2019-05-21T23:00:52.643Z,22.13
2019-05-21T23:05:57.580Z,21.27
2019-05-21T23:11:02.014Z,22.00
2019-05-21T23:16:05.979Z,21.73
2019-05-21T23:21:25.953Z,22.13
2019-05-21T23:26:30.760Z,22.10
2019-05-21T23:31:34.735Z,19.67
2019-05-21T23:36:41.006Z,22.13
2019-05-21T23:41:45.299Z,21.23
2019-05-21T23:46:50.373Z,21.87
2019-05-21T23:51:55.440Z,19.77
2019-05-21T23:57:01.098Z,21.07
